Time;durP1;ratioP1;P1;durP2;ratioP2;P2;SDS_P1;SDS_P2;PMS_P1;PMS_P2;Temp;Humidity;BMP_temperature;BMP_pressure;BME280_temperature;BME280_humidity;BME280_pressure;Samples;Min_cycle;Max_cycle;Signal;HPM_P1;HPM_P2
2021/01/22 00:00:19;;;;;;;105.10;43.13;;;5.40;76.90;;;;;;5036297;28;20091;-63
2021/01/22 00:02:45;;;;;;;106.13;43.78;;;5.40;77.10;;;;;;5050085;28;20484;-62
2021/01/22 00:05:11;;;;;;;101.43;43.15;;;5.40;77.00;;;;;;5041164;28;20053;-61
2021/01/22 00:07:36;;;;;;;110.63;44.72;;;5.40;77.00;;;;;;5049988;28;20057;-62
2021/01/22 00:10:03;;;;;;;104.40;44.75;;;5.50;77.00;;;;;;5050272;28;20037;-61
2021/01/22 00:12:29;;;;;;;113.63;44.65;;;5.50;77.00;;;;;;5050072;28;20390;-62
2021/01/22 00:14:55;;;;;;;104.53;42.80;;;5.50;76.80;;;;;;5049508;28;20029;-61
2021/01/22 00:17:20;;;;;;;100.10;42.58;;;5.50;76.70;;;;;;5032690;28;20030;-62
2021/01/22 00:19:46;;;;;;;97.75;43.25;;;5.50;76.80;;;;;;5034123;28;20025;-61
2021/01/22 00:22:11;;;;;;;100.80;44.97;;;5.50;76.90;;;;;;5033344;28;20479;-62
2021/01/22 00:24:37;;;;;;;100.10;42.67;;;5.50;76.70;;;;;;5034045;28;20120;-61
2021/01/22 00:27:03;;;;;;;100.22;43.95;;;5.60;76.70;;;;;;5049192;28;20018;-62
2021/01/22 00:29:28;;;;;;;103.55;44.33;;;5.50;76.60;;;;;;5063815;28;20044;-61
2021/01/22 00:31:54;;;;;;;98.07;43.28;;;5.50;76.70;;;;;;5054090;28;20029;-61
2021/01/22 00:34:20;;;;;;;104.50;43.00;;;5.50;77.00;;;;;;5054458;28;20060;-62
2021/01/22 00:36:45;;;;;;;107.65;44.35;;;5.40;77.10;;;;;;5053734;28;20032;-62
2021/01/22 00:39:11;;;;;;;106.45;44.90;;;5.40;77.30;;;;;;5054330;28;20052;-62
2021/01/22 00:41:37;;;;;;;99.50;43.47;;;5.40;77.40;;;;;;5039904;28;20470;-61
2021/01/22 00:44:03;;;;;;;100.13;42.83;;;5.40;77.20;;;;;;5054046;28;20311;-63
2021/01/22 00:46:28;;;;;;;102.60;43.90;;;5.50;76.90;;;;;;5052912;28;20123;-62
2021/01/22 00:48:54;;;;;;;105.63;43.63;;;5.50;76.60;;;;;;5052004;28;20115;-63
2021/01/22 00:51:20;;;;;;;103.18;43.72;;;5.40;76.80;;;;;;5054475;28;20032;-63
2021/01/22 00:53:45;;;;;;;106.65;44.78;;;5.40;76.80;;;;;;5053941;28;20037;-62
2021/01/22 00:56:11;;;;;;;99.30;42.90;;;5.40;76.90;;;;;;5051042;28;20029;-61
2021/01/22 00:58:37;;;;;;;106.47;43.05;;;5.40;76.90;;;;;;5034069;28;20037;-61
2021/01/22 01:01:02;;;;;;;96.72;41.70;;;5.40;76.80;;;;;;5034437;28;20029;-62
2021/01/22 01:03:29;;;;;;;95.07;42.15;;;5.30;77.10;;;;;;5034349;28;20031;-61
2021/01/22 01:05:54;;;;;;;96.07;42.67;;;5.30;77.40;;;;;;5034716;28;20041;-61
2021/01/22 01:08:20;;;;;;;93.68;41.53;;;5.30;77.30;;;;;;5034324;28;20045;-62
2021/01/22 01:10:46;;;;;;;94.68;40.72;;;5.30;77.30;;;;;;5045488;28;20025;-61
2021/01/22 01:13:11;;;;;;;96.57;42.03;;;5.30;77.30;;;;;;5054173;28;20444;-61
2021/01/22 01:15:37;;;;;;;99.63;43.25;;;5.30;77.30;;;;;;5040990;28;20025;-62
2021/01/22 01:18:03;;;;;;;95.65;42.08;;;5.30;77.40;;;;;;5050509;28;20025;-62
2021/01/22 01:20:28;;;;;;;101.85;43.58;;;5.30;77.30;;;;;;5053714;28;20036;-62
2021/01/22 01:22:54;;;;;;;95.13;41.75;;;5.40;77.20;;;;;;5053154;28;20029;-61
2021/01/22 01:25:19;;;;;;;98.03;43.90;;;5.40;77.00;;;;;;5053452;28;20063;-62
2021/01/22 01:27:45;;;;;;;103.65;44.00;;;5.40;76.80;;;;;;5047436;28;20429;-61
2021/01/22 01:30:11;;;;;;;110.18;45.08;;;5.40;76.80;;;;;;5033698;28;20035;-61
2021/01/22 01:32:37;;;;;;;111.63;46.00;;;5.30;77.00;;;;;;5051984;28;20029;-62
2021/01/22 01:35:03;;;;;;;106.18;43.38;;;5.30;77.30;;;;;;5053659;28;20489;-60
2021/01/22 01:37:28;;;;;;;99.38;44.10;;;5.30;77.40;;;;;;5052557;28;20041;-61
2021/01/22 01:39:54;;;;;;;104.82;42.83;;;5.30;78.10;;;;;;5038726;28;20036;-64
2021/01/22 01:42:20;;;;;;;99.45;43.22;;;5.30;77.60;;;;;;5132942;22;20498;-60
2021/01/22 01:44:45;;;;;;;100.45;42.67;;;5.30;77.40;;;;;;5013218;28;20030;-59
2021/01/22 01:47:11;;;;;;;102.32;44.33;;;5.30;77.40;;;;;;5013898;28;20420;-60
2021/01/22 01:49:37;;;;;;;96.00;41.42;;;5.30;77.40;;;;;;5010422;28;20026;-59
2021/01/22 01:52:02;;;;;;;89.80;40.70;;;5.30;77.40;;;;;;5013631;28;20041;-60
2021/01/22 01:54:29;;;;;;;96.75;42.30;;;5.30;77.50;;;;;;5013621;28;20040;-61
2021/01/22 01:57:13;;;;;;;82.55;39.00;;;5.30;77.50;;;;;;5013576;28;20022;-63
2021/01/22 01:59:40;;;;;;;87.43;39.05;;;5.30;77.50;;;;;;4995438;28;20471;-60
2021/01/22 02:02:06;;;;;;;86.75;39.28;;;5.30;77.60;;;;;;5013730;28;20030;-61
2021/01/22 02:04:32;;;;;;;87.45;41.42;;;5.20;77.60;;;;;;4996050;28;20026;-60
2021/01/22 02:06:58;;;;;;;86.78;38.50;;;5.30;77.70;;;;;;4976626;28;20129;-60
2021/01/22 02:09:24;;;;;;;78.22;37.67;;;5.30;77.70;;;;;;4992974;28;20058;-61
2021/01/22 02:11:50;;;;;;;81.03;37.28;;;5.30;77.60;;;;;;4993540;28;20046;-60
2021/01/22 02:14:16;;;;;;;83.32;38.80;;;5.30;77.40;;;;;;4991976;28;20065;-60
2021/01/22 02:16:42;;;;;;;87.22;39.50;;;5.40;77.30;;;;;;5012634;28;20040;-60
2021/01/22 02:19:09;;;;;;;79.75;35.70;;;5.40;77.10;;;;;;5013533;28;20034;-58
2021/01/22 02:21:37;;;;;;;78.53;37.50;;;5.40;77.00;;;;;;5012645;28;20033;-59
2021/01/22 02:24:13;;;;;;;75.60;34.55;;;5.40;76.90;;;;;;5012654;28;20446;-59
2021/01/22 02:26:41;;;;;;;64.57;32.63;;;5.30;76.90;;;;;;5012776;28;20025;-60
2021/01/22 02:29:08;;;;;;;64.15;32.50;;;5.20;77.40;;;;;;5013104;28;20053;-60
2021/01/22 02:31:40;;;;;;;67.90;32.42;;;5.10;77.60;;;;;;4982049;28;20038;-59
2021/01/22 02:34:09;;;;;;;63.53;32.28;;;5.10;77.40;;;;;;5007304;28;20038;-59
2021/01/22 02:36:37;;;;;;;67.50;32.15;;;5.10;77.30;;;;;;5012783;28;20034;-63
2021/01/22 02:39:06;;;;;;;58.97;30.13;;;5.00;77.70;;;;;;5013289;28;20025;-59
2021/01/22 02:41:34;;;;;;;51.63;28.75;;;5.10;77.70;;;;;;5012677;28;20045;-58
2021/01/22 02:44:03;;;;;;;53.10;27.27;;;5.10;77.50;;;;;;5009999;28;20036;-59
2021/01/22 02:46:30;;;;;;;51.85;28.00;;;5.10;77.30;;;;;;5012562;28;20112;-59
2021/01/22 02:48:57;;;;;;;53.83;28.02;;;5.10;77.10;;;;;;5012374;28;20104;-59
2021/01/22 02:51:42;;;;;;;51.15;27.52;;;5.10;77.00;;;;;;4994599;28;20085;-59
2021/01/22 02:54:07;;;;;;;50.75;28.30;;;5.10;76.90;;;;;;4995806;28;20029;-60
2021/01/22 02:56:48;;;;;;;53.05;28.27;;;5.00;77.30;;;;;;5012457;28;20022;-59
2021/01/22 02:59:47;;;;;;;54.63;28.65;;;5.00;77.50;;;;;;5012570;28;20036;-59
2021/01/22 03:02:21;;;;;;;56.58;29.50;;;5.00;77.60;;;;;;5012270;28;20037;-59
2021/01/22 03:04:47;;;;;;;59.53;30.17;;;5.10;77.40;;;;;;4994762;28;20037;-59
2021/01/22 03:07:25;;;;;;;58.42;30.75;;;5.00;77.40;;;;;;5011193;28;20510;-63
2021/01/22 03:09:55;;;;;;;55.83;28.95;;;5.10;77.40;;;;;;5008744;28;20040;-59
2021/01/22 03:12:22;;;;;;;60.60;31.58;;;5.10;77.20;;;;;;5012730;28;20050;-59
2021/01/22 03:14:48;;;;;;;59.00;30.73;;;5.20;77.00;;;;;;5011976;28;20097;-59
2021/01/22 03:17:17;;;;;;;56.08;30.95;;;5.30;76.80;;;;;;5012506;28;20030;-59
2021/01/22 03:19:48;;;;;;;53.47;30.73;;;5.30;76.20;;;;;;4994442;28;20040;-59
2021/01/22 03:22:14;;;;;;;53.58;29.85;;;5.30;76.30;;;;;;5012533;28;20048;-59
2021/01/22 03:24:40;;;;;;;53.92;29.00;;;5.30;76.20;;;;;;4994294;28;20033;-60
2021/01/22 03:27:06;;;;;;;50.90;27.95;;;5.30;75.90;;;;;;5011994;28;20040;-60
2021/01/22 03:29:34;;;;;;;54.35;29.77;;;5.30;75.80;;;;;;4994790;28;20069;-60
2021/01/22 03:32:00;;;;;;;51.72;28.80;;;5.30;75.80;;;;;;5011337;28;20033;-60
2021/01/22 03:34:26;;;;;;;50.70;28.45;;;5.30;75.60;;;;;;5012199;28;20072;-60
2021/01/22 03:36:59;;;;;;;50.00;28.70;;;5.40;75.50;;;;;;4994084;28;20030;-59
2021/01/22 03:39:26;;;;;;;49.05;27.85;;;5.50;75.10;;;;;;4994671;28;20033;-59
2021/01/22 03:41:52;;;;;;;47.33;25.65;;;5.40;74.80;;;;;;4995669;28;20388;-59
2021/01/22 03:44:19;;;;;;;45.58;26.17;;;5.40;74.80;;;;;;4992733;28;20030;-59
2021/01/22 03:46:46;;;;;;;44.63;25.48;;;5.40;74.80;;;;;;5001032;28;20037;-59
2021/01/22 03:49:12;;;;;;;42.08;24.17;;;5.40;74.90;;;;;;5011543;28;20037;-61
2021/01/22 03:51:37;;;;;;;42.83;23.98;;;5.30;74.90;;;;;;5012449;28;20033;-59
2021/01/22 03:54:04;;;;;;;42.83;25.38;;;5.30;75.00;;;;;;4997437;28;20498;-59
2021/01/22 03:56:30;;;;;;;42.72;25.05;;;5.30;74.90;;;;;;5015871;28;20022;-59
2021/01/22 03:58:56;;;;;;;42.58;24.27;;;5.40;75.00;;;;;;5014470;28;20029;-60
2021/01/22 04:01:22;;;;;;;38.53;22.77;;;5.40;74.80;;;;;;5015288;28;20033;-60
2021/01/22 04:03:48;;;;;;;35.97;21.85;;;5.50;74.60;;;;;;4999988;28;20117;-60
2021/01/22 04:06:15;;;;;;;34.83;22.17;;;5.50;74.40;;;;;;4997615;28;20037;-61
2021/01/22 04:08:40;;;;;;;35.67;22.00;;;5.60;74.30;;;;;;5014961;28;20120;-61
2021/01/22 04:11:06;;;;;;;36.30;22.27;;;5.50;74.00;;;;;;5016330;28;20062;-60
2021/01/22 04:13:33;;;;;;;38.13;22.27;;;5.60;73.90;;;;;;5014446;28;20050;-60
2021/01/22 04:15:59;;;;;;;38.40;22.65;;;5.50;73.90;;;;;;5014350;28;20388;-59
2021/01/22 04:18:25;;;;;;;38.05;23.67;;;5.50;74.00;;;;;;5015658;28;20040;-60
2021/01/22 04:20:50;;;;;;;34.85;21.08;;;5.40;74.20;;;;;;5014785;28;20109;-60
2021/01/22 04:23:16;;;;;;;36.60;21.77;;;5.40;74.40;;;;;;5015612;28;20026;-60
2021/01/22 04:25:42;;;;;;;38.45;21.83;;;5.50;74.30;;;;;;4997513;28;20029;-60
2021/01/22 04:28:07;;;;;;;33.55;22.02;;;5.50;74.10;;;;;;5015505;28;20478;-59
2021/01/22 04:30:33;;;;;;;32.58;21.98;;;5.50;74.00;;;;;;5015328;28;20041;-60
2021/01/22 04:32:58;;;;;;;34.55;21.45;;;5.60;74.00;;;;;;5011653;28;20095;-60
2021/01/22 04:35:24;;;;;;;34.08;20.65;;;5.60;73.90;;;;;;5013403;28;20480;-59
2021/01/22 04:37:50;;;;;;;39.35;22.63;;;5.60;73.70;;;;;;5011268;28;20096;-60
2021/01/22 04:40:16;;;;;;;35.42;21.55;;;5.60;73.50;;;;;;4997523;28;20104;-60
2021/01/22 04:42:44;;;;;;;36.22;22.08;;;5.60;73.50;;;;;;4996942;28;20131;-63
2021/01/22 04:45:15;;;;;;;33.55;21.25;;;5.60;73.50;;;;;;4997630;28;20080;-65
2021/01/22 04:47:41;;;;;;;31.42;20.35;;;5.60;73.60;;;;;;5015796;28;20026;-71
2021/01/22 04:50:11;;;;;;;35.28;21.95;;;5.70;73.60;;;;;;5017008;28;20039;-60
2021/01/22 04:52:38;;;;;;;33.85;20.08;;;5.70;73.40;;;;;;5017475;28;20173;-60
2021/01/22 04:55:06;;;;;;;33.38;20.85;;;5.70;73.30;;;;;;5015190;28;20033;-64
2021/01/22 04:57:35;;;;;;;37.20;21.92;;;5.70;73.10;;;;;;4999268;28;20055;-60
2021/01/22 05:00:04;;;;;;;36.42;21.27;;;5.70;73.20;;;;;;5016187;28;20346;-60
2021/01/22 05:02:29;;;;;;;35.08;19.67;;;5.70;73.10;;;;;;4997058;28;20080;-61
2021/01/22 05:04:56;;;;;;;30.75;20.08;;;5.70;73.30;;;;;;4996574;28;20459;-60
2021/01/22 05:07:22;;;;;;;31.50;19.98;;;5.80;73.20;;;;;;5014579;28;20026;-59
2021/01/22 05:09:49;;;;;;;29.80;19.20;;;5.80;73.00;;;;;;5016524;28;20467;-61
2021/01/22 05:12:15;;;;;;;31.90;20.23;;;5.80;72.80;;;;;;5017409;28;20100;-59
2021/01/22 05:14:40;;;;;;;34.53;20.25;;;5.80;73.00;;;;;;5015093;28;20383;-60
2021/01/22 05:17:11;;;;;;;31.17;19.30;;;5.90;73.20;;;;;;5002528;28;20081;-60
2021/01/22 05:19:43;;;;;;;31.10;19.80;;;5.80;73.10;;;;;;4997110;28;20026;-59
2021/01/22 05:22:17;;;;;;;30.67;19.43;;;5.80;73.20;;;;;;5001408;28;20026;-60
2021/01/22 05:24:44;;;;;;;30.90;18.92;;;5.80;73.20;;;;;;5014770;28;20026;-71
2021/01/22 05:27:12;;;;;;;30.48;19.00;;;5.80;73.30;;;;;;5014740;28;20084;-60
2021/01/22 05:29:43;;;;;;;31.00;18.92;;;5.90;73.00;;;;;;5014462;28;20088;-60
2021/01/22 05:32:28;;;;;;;31.33;19.10;;;6.00;72.80;;;;;;4978562;28;20092;-59
2021/01/22 05:34:55;;;;;;;27.83;17.70;;;6.10;72.60;;;;;;5012927;28;20074;-60
2021/01/22 05:37:23;;;;;;;29.33;19.23;;;6.10;72.30;;;;;;5013705;28;20022;-60
2021/01/22 05:40:08;;;;;;;28.65;18.20;;;6.20;72.10;;;;;;4990744;28;20040;-59
2021/01/22 05:42:54;;;;;;;27.55;17.15;;;6.20;71.90;;;;;;4994319;28;20108;-60
2021/01/22 05:45:38;;;;;;;31.95;18.63;;;6.30;71.70;;;;;;4994705;28;20030;-60
2021/01/22 05:48:04;;;;;;;30.25;17.95;;;6.30;71.70;;;;;;5004114;28;20034;-61
2021/01/22 05:50:44;;;;;;;28.67;18.20;;;6.20;71.70;;;;;;5012065;28;20030;-60
2021/01/22 05:53:15;;;;;;;29.33;18.17;;;6.20;71.80;;;;;;5006737;28;20494;-68
2021/01/22 05:55:40;;;;;;;30.75;18.52;;;6.20;71.60;;;;;;4984151;28;20034;-59
2021/01/22 05:58:06;;;;;;;30.83;18.95;;;6.20;71.70;;;;;;5009566;28;20036;-59
2021/01/22 06:00:32;;;;;;;28.92;17.73;;;6.20;71.70;;;;;;5013275;28;20080;-60
2021/01/22 06:02:58;;;;;;;27.13;18.77;;;6.20;71.60;;;;;;5011032;28;20042;-59
2021/01/22 06:05:26;;;;;;;28.98;17.50;;;6.20;71.50;;;;;;4994517;28;20037;-67
2021/01/22 06:08:07;;;;;;;29.27;17.77;;;6.20;71.10;;;;;;4994402;28;20045;-59
2021/01/22 06:10:41;;;;;;;28.55;18.83;;;6.20;71.00;;;;;;5012331;28;20109;-61
2021/01/22 06:13:08;;;;;;;27.40;17.27;;;6.20;71.40;;;;;;5012016;28;20072;-64
2021/01/22 06:15:35;;;;;;;31.48;17.20;;;6.20;71.10;;;;;;5013142;28;20028;-59
2021/01/22 06:18:02;;;;;;;26.40;17.45;;;6.20;70.90;;;;;;4993074;28;20033;-60
2021/01/22 06:20:29;;;;;;;24.88;17.00;;;6.30;71.10;;;;;;5001183;28;20018;-60
2021/01/22 06:23:14;;;;;;;25.55;17.17;;;6.30;71.00;;;;;;5010010;28;20026;-60
2021/01/22 06:25:41;;;;;;;26.48;16.95;;;6.30;70.80;;;;;;5012556;28;20018;-62
2021/01/22 06:28:10;;;;;;;26.23;17.35;;;6.40;70.40;;;;;;5011996;28;20327;-61
2021/01/22 06:30:37;;;;;;;29.88;18.50;;;6.40;70.40;;;;;;5012231;28;20113;-61
2021/01/22 06:33:06;;;;;;;29.92;18.02;;;6.40;70.60;;;;;;5014618;28;20462;-61
2021/01/22 06:35:35;;;;;;;30.67;20.33;;;6.40;70.30;;;;;;4997567;28;20038;-61
2021/01/22 06:38:02;;;;;;;30.15;19.88;;;6.50;70.20;;;;;;4994787;28;20036;-61
2021/01/22 06:40:28;;;;;;;28.13;18.65;;;6.40;69.90;;;;;;5012057;28;20032;-60
2021/01/22 06:42:55;;;;;;;29.70;17.75;;;6.50;69.90;;;;;;4993089;28;20058;-60
2021/01/22 06:45:23;;;;;;;28.80;18.27;;;6.50;69.90;;;;;;5011443;28;20037;-61
2021/01/22 06:47:58;;;;;;;26.95;18.15;;;6.50;70.20;;;;;;5012866;28;20049;-73
2021/01/22 06:50:24;;;;;;;31.05;18.45;;;6.50;69.50;;;;;;5014612;28;20463;-61
2021/01/22 06:53:08;;;;;;;27.70;19.23;;;6.30;69.70;;;;;;4995260;28;20036;-61
2021/01/22 06:55:54;;;;;;;29.55;19.17;;;6.30;69.90;;;;;;5006319;28;20032;-61
2021/01/22 07:01:33;;;;;;;31.15;18.73;;;6.40;70.00;;;;;;5000609;28;20437;-60
2021/01/22 07:03:59;;;;;;;29.42;18.67;;;6.40;69.80;;;;;;5003842;28;20354;-65
2021/01/22 07:06:31;;;;;;;27.67;18.33;;;6.30;70.00;;;;;;4988801;28;20026;-63
2021/01/22 07:08:59;;;;;;;26.23;18.50;;;6.40;70.50;;;;;;4990334;28;20030;-60
2021/01/22 07:11:25;;;;;;;31.13;18.90;;;6.50;70.10;;;;;;4991790;28;20042;-64
2021/01/22 07:13:52;;;;;;;36.20;18.80;;;6.50;69.90;;;;;;4993625;28;20125;-62
2021/01/22 07:16:17;;;;;;;33.95;18.70;;;6.60;69.70;;;;;;4988460;28;20018;-65
2021/01/22 07:18:56;;;;;;;33.28;17.08;;;6.50;69.70;;;;;;4994603;28;20025;-63
2021/01/22 07:21:27;;;;;;;39.00;20.15;;;6.50;69.70;;;;;;4997371;28;20190;-61
2021/01/22 07:23:55;;;;;;;37.03;18.40;;;6.60;69.90;;;;;;5008809;28;20096;-62
2021/01/22 07:26:24;;;;;;;37.65;19.63;;;6.60;70.00;;;;;;5010336;28;20026;-61
2021/01/22 07:28:51;;;;;;;37.15;20.08;;;6.60;69.80;;;;;;4988441;28;20483;-64
2021/01/22 07:31:55;;;;;;;37.35;19.92;;;6.70;69.80;;;;;;5011384;28;20057;-60
2021/01/22 07:34:36;;;;;;;48.30;19.90;;;6.70;69.60;;;;;;4993241;28;20112;-64
2021/01/22 07:37:07;;;;;;;37.00;19.00;;;6.80;69.50;;;;;;5009918;28;20113;-60
2021/01/22 07:39:33;;;;;;;43.03;20.75;;;6.80;69.30;;;;;;5005677;28;20034;-59
2021/01/22 07:42:03;;;;;;;40.10;19.27;;;6.80;69.30;;;;;;5004777;28;20054;-72
2021/01/22 07:44:28;;;;;;;43.45;20.27;;;6.90;69.30;;;;;;5001968;28;20454;-64
2021/01/22 07:46:54;;;;;;;45.58;20.08;;;7.00;69.30;;;;;;5003706;28;20101;-64
2021/01/22 07:49:20;;;;;;;43.15;19.70;;;7.00;69.30;;;;;;5005490;28;20058;-65
2021/01/22 07:51:46;;;;;;;28.73;18.33;;;7.10;69.10;;;;;;5010705;28;20030;-62
2021/01/22 07:54:13;;;;;;;41.28;18.48;;;7.10;68.90;;;;;;4992090;28;20445;-60
2021/01/22 07:56:42;;;;;;;28.70;17.85;;;7.10;68.80;;;;;;5011265;28;20501;-58
2021/01/22 07:59:11;;;;;;;46.33;19.50;;;7.10;68.90;;;;;;5009863;28;20022;-60
2021/01/22 08:01:36;;;;;;;45.20;20.25;;;7.10;68.90;;;;;;5009267;28;20117;-61
2021/01/22 08:04:03;;;;;;;36.67;20.30;;;7.20;69.10;;;;;;5010726;28;20414;-60
2021/01/22 08:06:29;;;;;;;51.83;20.48;;;7.30;69.10;;;;;;5010371;28;20081;-61
2021/01/22 08:09:14;;;;;;;40.65;21.35;;;7.30;69.00;;;;;;5010438;28;20077;-63
2021/01/22 08:11:40;;;;;;;46.67;23.65;;;7.40;69.00;;;;;;4984791;28;20046;-66
2021/01/22 08:14:07;;;;;;;44.45;23.65;;;7.40;68.90;;;;;;5007075;28;20068;-62
2021/01/22 08:16:34;;;;;;;37.58;21.80;;;7.50;69.00;;;;;;5003873;28;20026;-65
2021/01/22 08:19:00;;;;;;;37.85;22.17;;;7.50;68.90;;;;;;5004941;28;20025;-64
2021/01/22 08:21:30;;;;;;;38.95;21.38;;;7.50;69.20;;;;;;5009877;28;20026;-62
2021/01/22 08:23:59;;;;;;;38.78;21.38;;;7.70;69.40;;;;;;5008886;28;20494;-64
2021/01/22 08:26:26;;;;;;;44.92;21.33;;;7.70;69.30;;;;;;5008765;28;20113;-62
2021/01/22 08:28:55;;;;;;;38.53;20.52;;;7.80;69.30;;;;;;4992413;28;20034;-60
2021/01/22 08:31:22;;;;;;;34.47;19.60;;;7.90;69.10;;;;;;5006807;28;20081;-65
2021/01/22 08:33:48;;;;;;;31.73;18.08;;;7.90;69.20;;;;;;5009177;28;20080;-60
2021/01/22 08:36:15;;;;;;;30.73;19.10;;;8.00;69.50;;;;;;4991159;28;20190;-63
2021/01/22 08:38:41;;;;;;;31.38;19.63;;;8.10;69.30;;;;;;4978467;28;20072;-61
2021/01/22 08:41:07;;;;;;;34.17;19.05;;;8.20;69.00;;;;;;5013172;28;20050;-61
2021/01/22 08:43:49;;;;;;;29.10;18.83;;;8.30;68.80;;;;;;4996149;28;20046;-60
2021/01/22 08:46:16;;;;;;;38.78;21.02;;;8.30;68.60;;;;;;4995731;28;20331;-60
2021/01/22 08:48:42;;;;;;;39.38;20.65;;;8.40;68.40;;;;;;5013770;28;20030;-60
2021/01/22 08:51:08;;;;;;;39.08;21.45;;;8.40;68.20;;;;;;4988839;28;20030;-62
2021/01/22 08:53:47;;;;;;;38.08;21.63;;;8.50;68.60;;;;;;5009312;28;20092;-62
2021/01/22 08:56:14;;;;;;;36.17;21.10;;;8.50;68.60;;;;;;4996337;28;20037;-60
2021/01/22 08:59:05;;;;;;;47.58;20.08;;;8.40;68.60;;;;;;5006297;28;20080;-60
2021/01/22 09:01:47;;;;;;;35.13;19.95;;;8.50;68.50;;;;;;5000814;28;20383;-62
2021/01/22 09:04:36;;;;;;;35.47;21.08;;;8.50;68.20;;;;;;5012802;28;20022;-63
2021/01/22 09:07:23;;;;;;;43.03;21.65;;;8.50;67.70;;;;;;4994035;28;20034;-61
2021/01/22 09:09:50;;;;;;;42.65;21.50;;;8.50;67.70;;;;;;5003995;28;20479;-62
2021/01/22 09:12:26;;;;;;;43.20;21.85;;;8.50;67.40;;;;;;4984865;28;20598;-61
2021/01/22 09:14:53;;;;;;;46.83;22.13;;;8.50;67.70;;;;;;4985711;28;20037;-64
2021/01/22 09:17:41;;;;;;;43.00;22.27;;;8.50;67.50;;;;;;4980181;28;20037;-71
2021/01/22 09:20:14;;;;;;;48.42;22.58;;;8.60;67.50;;;;;;4985208;28;20053;-62
2021/01/22 09:22:41;;;;;;;43.17;23.65;;;8.60;67.20;;;;;;5004636;28;20026;-63
2021/01/22 09:25:10;;;;;;;40.53;22.08;;;8.60;67.10;;;;;;5012949;28;20022;-61
2021/01/22 09:27:37;;;;;;;43.70;22.83;;;8.60;67.00;;;;;;5009981;28;20034;-62
2021/01/22 09:30:05;;;;;;;47.10;23.63;;;8.70;66.70;;;;;;4998234;28;20022;-63
2021/01/22 09:32:31;;;;;;;44.83;22.88;;;8.70;66.80;;;;;;5003944;28;20192;-61
2021/01/22 09:34:57;;;;;;;54.92;24.85;;;8.70;66.60;;;;;;4994360;28;20527;-65
2021/01/22 09:37:23;;;;;;;44.72;22.38;;;8.70;66.60;;;;;;5001572;28;20045;-65
2021/01/22 09:39:49;;;;;;;50.25;23.35;;;8.60;66.70;;;;;;5001236;28;20030;-68
2021/01/22 09:42:15;;;;;;;41.55;22.00;;;8.60;67.00;;;;;;5002067;28;20177;-59
2021/01/22 09:44:41;;;;;;;41.90;22.73;;;8.70;66.90;;;;;;5007947;28;20664;-60
2021/01/22 09:47:06;;;;;;;37.40;22.20;;;8.90;66.70;;;;;;5001060;28;20169;-60
2021/01/22 09:49:32;;;;;;;47.35;22.23;;;9.00;66.60;;;;;;4991511;28;20077;-65
2021/01/22 09:51:58;;;;;;;50.63;23.38;;;9.10;65.90;;;;;;5005744;28;20029;-61
2021/01/22 09:54:24;;;;;;;41.10;22.45;;;9.20;65.70;;;;;;4991676;28;20442;-63
2021/01/22 09:56:50;;;;;;;46.67;23.05;;;9.40;65.50;;;;;;4990428;28;20027;-61
2021/01/22 09:59:15;;;;;;;42.35;22.98;;;9.50;65.10;;;;;;5007220;28;20383;-61
2021/01/22 10:01:41;;;;;;;45.75;23.00;;;9.60;64.90;;;;;;5005500;28;20030;-60
2021/01/22 10:04:07;;;;;;;38.72;23.17;;;9.70;64.40;;;;;;5008392;28;20654;-59
2021/01/22 10:06:34;;;;;;;45.63;23.73;;;9.90;64.20;;;;;;5006045;28;20026;-60
2021/01/22 10:09:00;;;;;;;41.58;24.42;;;9.90;63.20;;;;;;4987037;28;20391;-67
2021/01/22 10:11:27;;;;;;;55.42;26.02;;;9.80;63.60;;;;;;5006899;28;20026;-61
2021/01/22 10:13:56;;;;;;;42.63;24.08;;;9.80;64.10;;;;;;4982055;28;20050;-64
2021/01/22 10:16:23;;;;;;;47.20;25.30;;;9.90;64.00;;;;;;5002792;28;20022;-60
2021/01/22 10:18:51;;;;;;;46.97;24.88;;;10.00;63.80;;;;;;4987791;28;20022;-60
2021/01/22 10:21:21;;;;;;;45.00;23.08;;;10.00;63.50;;;;;;5008717;28;20040;-62
2021/01/22 10:23:48;;;;;;;49.83;24.98;;;10.00;63.40;;;;;;4984173;28;20496;-62
2021/01/22 10:26:15;;;;;;;43.70;25.05;;;10.00;63.30;;;;;;4973679;28;20046;-63
2021/01/22 10:28:41;;;;;;;44.97;24.83;;;10.10;63.30;;;;;;5003048;28;20022;-63
2021/01/22 10:31:07;;;;;;;42.25;24.02;;;10.00;63.40;;;;;;4999465;28;20026;-65
2021/01/22 10:33:33;;;;;;;41.42;24.05;;;10.10;63.40;;;;;;5010234;28;20130;-66
2021/01/22 10:35:59;;;;;;;44.35;23.48;;;10.00;63.20;;;;;;5005013;28;20415;-66
2021/01/22 10:38:26;;;;;;;41.40;24.27;;;10.10;63.40;;;;;;5006696;28;20093;-66
2021/01/22 10:40:53;;;;;;;43.03;23.90;;;10.20;63.30;;;;;;4995962;28;20359;-68
2021/01/22 10:43:19;;;;;;;44.72;25.42;;;10.40;63.80;;;;;;5005247;28;20050;-66
2021/01/22 10:45:45;;;;;;;41.42;24.35;;;10.60;62.60;;;;;;4992126;28;20041;-67
2021/01/22 10:48:11;;;;;;;42.90;24.92;;;10.70;62.20;;;;;;4992551;28;20038;-66
2021/01/22 10:50:37;;;;;;;44.25;24.55;;;10.90;61.80;;;;;;5011883;28;20037;-64
2021/01/22 10:53:02;;;;;;;42.13;23.88;;;11.00;61.40;;;;;;5011411;28;20050;-65
2021/01/22 10:55:28;;;;;;;39.80;26.02;;;11.30;61.10;;;;;;5004435;28;20026;-62
2021/01/22 10:57:54;;;;;;;51.80;26.67;;;12.00;60.10;;;;;;4990810;28;20019;-64
2021/01/22 11:00:20;;;;;;;48.92;24.75;;;12.50;58.80;;;;;;4994432;28;20023;-64
2021/01/22 11:02:46;;;;;;;54.70;26.88;;;13.10;57.20;;;;;;5000820;28;20156;-65
2021/01/22 11:05:12;;;;;;;42.35;24.45;;;13.20;55.30;;;;;;4990299;28;20116;-66
2021/01/22 11:07:38;;;;;;;42.28;24.77;;;13.20;54.70;;;;;;5009779;28;20030;-65
2021/01/22 11:10:04;;;;;;;46.65;25.77;;;12.90;55.00;;;;;;5010269;28;20030;-65
2021/01/22 11:12:30;;;;;;;38.53;24.58;;;12.70;55.60;;;;;;5011655;28;20038;-65
2021/01/22 11:14:56;;;;;;;40.08;24.60;;;13.00;55.80;;;;;;5010374;28;20113;-65
2021/01/22 11:17:22;;;;;;;44.63;25.08;;;13.10;54.90;;;;;;5011046;28;20506;-65
2021/01/22 11:19:48;;;;;;;44.10;25.23;;;12.90;54.90;;;;;;5011228;28;20459;-66
2021/01/22 11:22:14;;;;;;;48.72;24.05;;;12.60;55.40;;;;;;5011331;28;20029;-65
2021/01/22 11:24:39;;;;;;;40.10;23.92;;;12.50;55.70;;;;;;5011184;28;20144;-65
2021/01/22 11:27:05;;;;;;;39.97;24.42;;;12.30;56.10;;;;;;5011600;28;20088;-65
2021/01/22 11:29:31;;;;;;;39.58;24.75;;;12.10;56.80;;;;;;5011849;28;20036;-67
2021/01/22 11:31:56;;;;;;;39.47;25.63;;;12.00;57.10;;;;;;5012589;28;20117;-64
2021/01/22 11:34:22;;;;;;;36.92;25.05;;;12.10;57.40;;;;;;5015262;28;20022;-66
2021/01/22 11:36:48;;;;;;;38.92;23.33;;;12.20;57.50;;;;;;5011670;28;20054;-65
2021/01/22 11:39:13;;;;;;;40.15;23.60;;;12.30;57.20;;;;;;4993615;28;20018;-66
2021/01/22 11:41:39;;;;;;;39.95;23.30;;;12.30;57.10;;;;;;5012308;28;20038;-65
2021/01/22 11:44:09;;;;;;;33.50;22.40;;;12.30;56.90;;;;;;5011130;28;20130;-64
2021/01/22 11:46:36;;;;;;;37.78;22.38;;;12.30;56.80;;;;;;5011745;28;20660;-65
2021/01/22 11:49:02;;;;;;;30.80;19.10;;;12.20;57.20;;;;;;4993762;28;20030;-67
2021/01/22 11:51:28;;;;;;;31.35;18.23;;;12.20;57.30;;;;;;5010485;28;20026;-66
2021/01/22 11:53:54;;;;;;;26.15;17.33;;;12.10;57.30;;;;;;5012785;28;20026;-65
2021/01/22 11:56:19;;;;;;;23.48;17.27;;;12.10;56.90;;;;;;4993891;28;20318;-65
2021/01/22 11:58:45;;;;;;;24.77;16.77;;;12.00;56.70;;;;;;4991985;28;20084;-64
2021/01/22 12:01:11;;;;;;;35.35;18.70;;;12.30;57.00;;;;;;4993279;28;20025;-65
2021/01/22 12:03:36;;;;;;;32.22;18.58;;;13.30;54.70;;;;;;4994287;28;20021;-66
2021/01/22 12:06:02;;;;;;;28.58;17.00;;;13.70;52.90;;;;;;5012282;28;20076;-66
2021/01/22 12:08:28;;;;;;;29.13;16.45;;;13.50;52.50;;;;;;5011936;28;20026;-64
2021/01/22 12:10:54;;;;;;;28.30;17.52;;;13.40;53.10;;;;;;5012001;28;20022;-65
2021/01/22 12:13:20;;;;;;;28.25;16.35;;;13.30;53.40;;;;;;5013244;28;20176;-65
2021/01/22 12:16:04;;;;;;;30.65;17.85;;;13.90;52.70;;;;;;5016445;28;20343;-65
2021/01/22 12:18:30;;;;;;;28.05;18.85;;;14.60;50.20;;;;;;5012439;28;20018;-66
2021/01/22 12:20:55;;;;;;;26.98;16.75;;;14.70;49.80;;;;;;4995471;28;20358;-65
2021/01/22 12:23:21;;;;;;;26.42;17.23;;;14.30;49.80;;;;;;4998045;28;20375;-64
2021/01/22 12:25:47;;;;;;;25.50;16.40;;;13.90;50.80;;;;;;4997454;28;20467;-66
2021/01/22 12:28:14;;;;;;;29.73;17.02;;;13.60;51.50;;;;;;4996473;28;20026;-65
2021/01/22 12:30:40;;;;;;;25.13;16.38;;;13.30;52.20;;;;;;4997585;28;20097;-64
2021/01/22 12:33:05;;;;;;;27.05;16.55;;;13.10;53.00;;;;;;5014588;28;20168;-67
2021/01/22 12:35:31;;;;;;;29.08;17.52;;;12.90;53.50;;;;;;5010148;28;20109;-64
2021/01/22 12:37:57;;;;;;;31.30;18.30;;;12.80;54.00;;;;;;4997643;28;20026;-66
2021/01/22 12:40:23;;;;;;;28.05;17.95;;;12.60;54.40;;;;;;5014629;28;20606;-64